createdAt,value
2018-08-22T00:01:26.615Z,0.60
2018-08-22T00:03:28.629Z,0.75
2018-08-22T00:05:30.605Z,0.62
2018-08-22T00:07:32.855Z,0.60
2018-08-22T00:09:34.811Z,0.60
2018-08-22T00:11:36.799Z,0.57
2018-08-22T00:13:38.808Z,0.57
2018-08-22T00:15:40.815Z,0.70
2018-08-22T00:17:42.802Z,0.85
2018-08-22T00:19:44.779Z,0.40
2018-08-22T00:21:46.790Z,0.70
2018-08-22T00:23:48.760Z,0.60
2018-08-22T00:25:50.787Z,0.50
2018-08-22T00:27:52.795Z,0.60
2018-08-22T00:29:54.787Z,0.50
2018-08-22T00:31:56.789Z,0.50
2018-08-22T00:33:58.776Z,0.55
2018-08-22T00:36:00.743Z,0.60
2018-08-22T00:38:02.737Z,0.50
2018-08-22T00:40:04.745Z,0.50
2018-08-22T00:42:06.759Z,0.72
2018-08-22T00:44:08.765Z,0.40
2018-08-22T00:46:10.760Z,0.90
2018-08-22T00:48:12.740Z,0.65
2018-08-22T00:50:14.741Z,0.80
2018-08-22T00:52:16.723Z,0.50
2018-08-22T00:54:18.743Z,0.53
2018-08-22T00:56:20.730Z,0.42
2018-08-22T00:58:22.721Z,0.60
2018-08-22T01:00:24.732Z,0.50
2018-08-22T01:02:26.711Z,0.60
2018-08-22T01:04:28.720Z,0.50
2018-08-22T01:06:30.683Z,0.80
2018-08-22T01:08:32.693Z,0.60
2018-08-22T01:10:34.649Z,0.65
2018-08-22T01:12:36.623Z,0.98
2018-08-22T01:14:38.626Z,0.60
2018-08-22T01:16:40.589Z,1.00
2018-08-22T01:18:42.593Z,0.50
2018-08-22T01:20:44.576Z,0.50
2018-08-22T01:22:46.550Z,0.88
2018-08-22T01:24:48.555Z,0.50
2018-08-22T01:26:50.526Z,0.50
2018-08-22T01:28:52.485Z,0.50
2018-08-22T01:30:54.497Z,0.85
2018-08-22T01:32:56.478Z,1.37
2018-08-22T01:34:58.471Z,0.85
2018-08-22T01:37:00.493Z,0.53
2018-08-22T01:39:02.459Z,0.62
2018-08-22T01:41:04.454Z,0.47
2018-08-22T01:43:06.463Z,0.80
2018-08-22T01:45:08.419Z,0.60
2018-08-22T01:47:10.435Z,0.50
2018-08-22T01:49:12.403Z,0.45
2018-08-22T01:51:14.364Z,0.65
2018-08-22T01:53:16.349Z,0.72
2018-08-22T01:55:18.361Z,0.60
2018-08-22T01:57:20.336Z,0.47
2018-08-22T01:59:22.321Z,0.60
2018-08-22T02:01:24.327Z,0.60
2018-08-22T02:03:26.333Z,0.68
2018-08-22T02:05:28.293Z,0.70
2018-08-22T02:07:30.306Z,0.57
2018-08-22T02:09:32.298Z,0.60
2018-08-22T02:11:34.260Z,0.70
2018-08-22T02:13:36.267Z,0.57
2018-08-22T02:15:38.220Z,0.88
2018-08-22T02:17:40.203Z,0.60
2018-08-22T02:19:42.208Z,0.40
2018-08-22T02:21:44.179Z,0.60
2018-08-22T02:23:46.146Z,0.80
2018-08-22T02:25:48.155Z,0.88
2018-08-22T02:27:50.165Z,0.85
2018-08-22T02:29:52.147Z,0.60
2018-08-22T02:31:54.146Z,0.60
2018-08-22T02:33:56.121Z,0.70
2018-08-22T02:35:58.115Z,0.50
2018-08-22T02:38:00.115Z,0.60
2018-08-22T02:40:02.127Z,0.78
2018-08-22T02:42:04.127Z,0.60
2018-08-22T02:44:06.124Z,0.50
2018-08-22T02:46:08.125Z,0.70
2018-08-22T02:48:10.096Z,0.60
2018-08-22T02:50:12.108Z,0.75
2018-08-22T02:52:14.132Z,0.53
2018-08-22T02:54:16.118Z,0.40
2018-08-22T02:56:18.118Z,0.70
2018-08-22T02:58:20.176Z,0.50
2018-08-22T03:00:22.188Z,0.75
2018-08-22T03:02:24.173Z,0.40
2018-08-22T03:04:26.180Z,0.50
2018-08-22T03:06:28.135Z,0.80
2018-08-22T03:08:30.109Z,0.60
2018-08-22T03:10:32.122Z,0.60
2018-08-22T03:12:34.388Z,0.78
2018-08-22T03:14:36.372Z,0.57
2018-08-22T03:16:38.350Z,0.45
2018-08-22T03:18:40.356Z,1.35
2018-08-22T03:20:42.360Z,0.60
2018-08-22T03:22:44.332Z,0.65
2018-08-22T03:24:46.335Z,0.65
2018-08-22T03:26:48.302Z,0.57
2018-08-22T03:28:50.273Z,0.40
2018-08-22T03:30:52.277Z,0.42
2018-08-22T03:32:54.248Z,0.62
2018-08-22T03:34:56.261Z,0.50
2018-08-22T03:36:58.230Z,0.50
2018-08-22T03:39:00.194Z,0.50
2018-08-22T03:41:02.206Z,0.53
2018-08-22T03:43:04.218Z,0.80
2018-08-22T03:45:06.224Z,0.60
2018-08-22T03:47:08.201Z,1.55
2018-08-22T03:49:10.283Z,0.55
2018-08-22T03:51:12.259Z,0.40
2018-08-22T03:53:14.270Z,0.53
2018-08-22T03:55:16.288Z,0.62
2018-08-22T03:57:18.252Z,0.60
2018-08-22T03:59:20.260Z,0.50
2018-08-22T04:01:22.664Z,0.50
2018-08-22T04:03:24.643Z,0.60
2018-08-22T04:05:26.646Z,0.50
2018-08-22T04:07:28.683Z,0.78
2018-08-22T04:09:30.687Z,0.60
2018-08-22T04:11:32.694Z,0.80
2018-08-22T04:13:34.666Z,0.45
2018-08-22T04:15:36.684Z,0.42
2018-08-22T04:17:38.652Z,0.55
2018-08-22T04:19:40.618Z,0.40
2018-08-22T04:21:42.621Z,0.50
2018-08-22T04:23:44.650Z,0.50
2018-08-22T04:25:46.630Z,0.40
2018-08-22T04:27:48.586Z,0.50
2018-08-22T04:29:50.590Z,0.45
2018-08-22T04:31:52.574Z,0.60
2018-08-22T04:33:54.572Z,0.55
2018-08-22T04:35:56.544Z,0.42
2018-08-22T04:37:58.536Z,0.60
2018-08-22T04:40:00.566Z,0.72
2018-08-22T04:42:02.536Z,0.60
2018-08-22T04:44:04.509Z,0.60
2018-08-22T04:46:06.516Z,0.70
2018-08-22T04:48:08.524Z,0.50
2018-08-22T04:50:10.460Z,0.60
2018-08-22T04:52:12.463Z,1.85
2018-08-22T04:54:14.450Z,0.72
2018-08-22T04:56:16.441Z,0.60
2018-08-22T04:58:18.464Z,0.65
2018-08-22T05:00:20.458Z,0.60
2018-08-22T05:02:22.434Z,0.57
2018-08-22T05:04:24.440Z,0.72
2018-08-22T05:06:26.417Z,1.35
2018-08-22T05:08:28.400Z,0.60
2018-08-22T05:10:30.405Z,0.80
2018-08-22T05:12:32.386Z,0.95
2018-08-22T05:14:34.384Z,0.60
2018-08-22T05:16:36.348Z,0.50
2018-08-22T05:18:38.314Z,1.10
2018-08-22T05:20:40.332Z,0.88
2018-08-22T05:22:42.303Z,0.85
2018-08-22T05:24:44.391Z,0.60
2018-08-22T05:26:46.341Z,1.17
2018-08-22T05:28:48.368Z,0.42
2018-08-22T05:30:50.331Z,0.60
2018-08-22T05:32:52.293Z,1.22
2018-08-22T05:34:54.298Z,0.70
2018-08-22T05:36:56.284Z,0.62
2018-08-22T05:38:58.282Z,0.72
2018-08-22T05:41:00.244Z,0.50
2018-08-22T05:43:02.248Z,0.55
2018-08-22T05:45:04.268Z,0.78
2018-08-22T05:47:06.242Z,0.70
2018-08-22T05:49:08.278Z,0.60
2018-08-22T05:51:10.302Z,0.60
2018-08-22T05:53:12.273Z,0.95
2018-08-22T05:55:14.281Z,0.72
2018-08-22T05:57:16.254Z,0.65
2018-08-22T05:59:18.259Z,0.68
2018-08-22T06:01:20.262Z,0.50
2018-08-22T06:03:22.293Z,0.50
2018-08-22T06:05:24.616Z,0.68
2018-08-22T06:07:26.618Z,0.82
2018-08-22T06:09:28.599Z,1.20
2018-08-22T06:11:30.552Z,0.70
2018-08-22T06:13:32.568Z,0.88
2018-08-22T06:15:34.560Z,0.60
2018-08-22T06:17:36.808Z,0.50
2018-08-22T06:19:38.798Z,1.07
2018-08-22T06:21:40.766Z,0.60
2018-08-22T06:23:42.761Z,0.50
2018-08-22T06:25:44.732Z,1.42
2018-08-22T06:27:46.759Z,0.82
2018-08-22T06:29:48.752Z,0.60
2018-08-22T06:31:50.772Z,0.78
2018-08-22T06:33:52.754Z,0.65
2018-08-22T06:35:54.718Z,0.50
2018-08-22T06:37:56.747Z,0.85
2018-08-22T06:39:58.704Z,0.53
2018-08-22T06:42:00.716Z,0.70
2018-08-22T06:44:02.705Z,0.42
2018-08-22T06:46:04.682Z,0.50
2018-08-22T06:48:06.686Z,0.30
2018-08-22T06:50:08.704Z,0.60
2018-08-22T06:52:10.952Z,0.50
2018-08-22T06:54:12.945Z,0.60
2018-08-22T06:56:14.939Z,0.53
2018-08-22T06:58:16.986Z,0.60
2018-08-22T07:00:18.926Z,0.50
2018-08-22T07:02:20.896Z,1.10
2018-08-22T07:04:22.928Z,0.55
2018-08-22T07:06:24.896Z,0.70
2018-08-22T07:08:26.900Z,0.60
2018-08-22T07:10:28.885Z,0.50
2018-08-22T07:12:30.880Z,0.60
2018-08-22T07:14:32.856Z,0.55
2018-08-22T07:16:34.864Z,0.82
2018-08-22T07:18:36.876Z,0.98
2018-08-22T07:20:38.848Z,0.72
2018-08-22T07:22:40.798Z,0.70
2018-08-22T07:24:42.802Z,1.70
2018-08-22T07:26:44.782Z,0.40
2018-08-22T07:28:46.756Z,1.17
2018-08-22T07:30:48.762Z,0.50
2018-08-22T07:32:50.778Z,1.30
2018-08-22T07:34:52.760Z,0.75
2018-08-22T07:36:54.787Z,0.72
2018-08-22T07:38:56.772Z,1.10
2018-08-22T07:40:58.774Z,0.65
2018-08-22T07:43:00.745Z,0.70
2018-08-22T07:45:02.736Z,0.57
2018-08-22T07:47:04.825Z,0.50
2018-08-22T07:49:06.760Z,0.60
2018-08-22T07:51:08.740Z,1.27
2018-08-22T07:53:10.814Z,0.72
2018-08-22T07:55:12.734Z,0.50
2018-08-22T07:57:14.737Z,0.53
2018-08-22T07:59:16.712Z,0.57
2018-08-22T08:01:18.680Z,0.62
2018-08-22T08:03:20.669Z,0.42
2018-08-22T08:05:22.683Z,0.55
2018-08-22T08:07:24.689Z,0.50
2018-08-22T08:09:26.668Z,0.65
2018-08-22T08:11:28.683Z,0.60
2018-08-22T08:13:30.663Z,0.50
2018-08-22T08:15:32.640Z,0.60
2018-08-22T08:17:34.643Z,0.50
2018-08-22T08:19:36.650Z,0.42
2018-08-22T08:21:38.648Z,0.93
2018-08-22T08:23:40.638Z,0.33
2018-08-22T08:25:42.645Z,0.50
2018-08-22T08:27:44.643Z,0.60
2018-08-22T08:29:46.623Z,0.47
2018-08-22T08:31:48.625Z,0.60
2018-08-22T08:33:50.585Z,0.82
2018-08-22T08:35:52.583Z,1.05
2018-08-22T08:37:54.545Z,0.60
2018-08-22T08:39:56.534Z,0.47
2018-08-22T08:41:58.529Z,0.78
2018-08-22T08:44:00.505Z,0.50
2018-08-22T08:46:02.509Z,0.72
2018-08-22T08:48:04.517Z,0.60
2018-08-22T08:50:06.482Z,0.80
2018-08-22T08:52:08.507Z,0.60
2018-08-22T08:54:10.503Z,0.53
2018-08-22T08:56:12.475Z,0.80
2018-08-22T08:58:14.468Z,0.60
2018-08-22T09:00:16.491Z,0.68
2018-08-22T09:02:18.461Z,0.55
2018-08-22T09:04:20.451Z,0.60
2018-08-22T09:06:22.447Z,0.88
2018-08-22T09:08:24.587Z,0.53
2018-08-22T09:10:26.612Z,0.53
2018-08-22T09:12:28.583Z,0.47
2018-08-22T09:14:30.545Z,0.62
2018-08-22T09:16:32.562Z,0.55
2018-08-22T09:18:34.534Z,0.95
2018-08-22T09:20:36.543Z,0.47
2018-08-22T09:22:38.523Z,0.50
2018-08-22T09:24:40.511Z,0.45
2018-08-22T09:26:42.508Z,0.85
2018-08-22T09:28:44.526Z,0.62
2018-08-22T09:30:46.526Z,1.32
2018-08-22T09:32:48.488Z,0.68
2018-08-22T09:34:50.471Z,0.60
2018-08-22T09:36:52.515Z,1.00
2018-08-22T09:38:54.479Z,0.70
2018-08-22T09:40:56.515Z,0.60
2018-08-22T09:42:58.482Z,0.40
2018-08-22T09:45:00.440Z,0.47
2018-08-22T09:47:02.469Z,0.60
2018-08-22T09:49:04.480Z,0.72
2018-08-22T09:51:06.514Z,0.60
2018-08-22T09:53:08.480Z,0.50
2018-08-22T09:55:10.497Z,0.50
2018-08-22T09:57:12.518Z,0.55
2018-08-22T09:59:14.475Z,1.35
2018-08-22T10:01:16.433Z,0.40
2018-08-22T10:03:18.453Z,0.55
2018-08-22T10:05:20.412Z,0.72
2018-08-22T10:07:22.416Z,0.78
2018-08-22T10:09:24.407Z,0.57
2018-08-22T10:11:26.394Z,0.42
2018-08-22T10:13:28.345Z,0.75
2018-08-22T10:15:30.351Z,0.40
2018-08-22T10:17:32.330Z,1.05
2018-08-22T10:19:34.390Z,0.50
2018-08-22T10:21:36.301Z,0.85
2018-08-22T10:23:38.329Z,0.60
2018-08-22T10:25:40.316Z,0.72
2018-08-22T10:27:42.296Z,1.52
2018-08-22T10:29:44.297Z,1.40
2018-08-22T10:31:46.296Z,1.00
2018-08-22T10:33:48.261Z,0.85
2018-08-22T10:35:50.261Z,0.60
2018-08-22T10:37:52.253Z,0.82
2018-08-22T10:39:54.243Z,0.55
2018-08-22T10:41:56.236Z,1.27
2018-08-22T10:43:58.216Z,1.55
2018-08-22T10:46:00.205Z,0.62
2018-08-22T10:48:02.300Z,0.50
2018-08-22T10:50:04.223Z,0.70
2018-08-22T10:52:06.274Z,0.60
2018-08-22T10:54:08.561Z,0.50
2018-08-22T10:56:10.539Z,0.50
2018-08-22T10:58:12.554Z,0.72
2018-08-22T11:00:14.547Z,0.98
2018-08-22T11:02:16.537Z,0.40
2018-08-22T11:04:18.510Z,0.60
2018-08-22T11:06:20.486Z,0.40
2018-08-22T11:08:22.480Z,0.70
2018-08-22T11:10:24.452Z,0.50
2018-08-22T11:12:26.462Z,0.40
2018-08-22T11:14:28.442Z,0.53
2018-08-22T11:16:30.447Z,0.78
2018-08-22T11:18:32.424Z,0.65
2018-08-22T11:20:34.384Z,0.57
2018-08-22T11:22:36.400Z,0.50
2018-08-22T11:24:38.424Z,0.80
2018-08-22T11:26:40.425Z,1.05
2018-08-22T11:28:42.398Z,0.68
2018-08-22T11:30:44.400Z,0.50
2018-08-22T11:32:46.408Z,0.45
2018-08-22T11:34:48.386Z,1.27
2018-08-22T11:36:50.390Z,1.00
2018-08-22T11:38:52.376Z,0.55
2018-08-22T11:40:54.356Z,0.55
2018-08-22T11:42:56.360Z,1.37
2018-08-22T11:44:58.330Z,0.40
2018-08-22T11:47:00.301Z,1.75
2018-08-22T11:49:02.301Z,0.68
2018-08-22T11:51:04.262Z,0.50
2018-08-22T11:53:06.268Z,0.65
2018-08-22T11:55:08.252Z,0.68
2018-08-22T11:57:10.258Z,0.50
2018-08-22T11:59:12.262Z,0.50
2018-08-22T12:01:14.256Z,0.65
2018-08-22T12:03:16.232Z,0.53
2018-08-22T12:05:18.274Z,0.50
2018-08-22T12:07:20.252Z,0.30
2018-08-22T12:09:22.206Z,0.70
2018-08-22T12:11:24.220Z,0.60
2018-08-22T12:13:26.209Z,0.70
2018-08-22T12:15:28.192Z,0.70
2018-08-22T12:17:31.115Z,0.60
2018-08-22T12:19:33.120Z,0.60
2018-08-22T12:21:35.115Z,0.60
2018-08-22T12:23:37.092Z,0.70
2018-08-22T12:25:39.108Z,0.70
2018-08-22T12:27:41.078Z,0.60
2018-08-22T12:29:43.078Z,0.50
2018-08-22T12:31:45.048Z,0.60
2018-08-22T12:33:47.076Z,1.02
2018-08-22T12:35:49.065Z,0.60
2018-08-22T12:37:51.118Z,0.80
2018-08-22T12:39:53.028Z,0.68
2018-08-22T12:41:55.000Z,0.82
2018-08-22T12:43:57.018Z,0.57
2018-08-22T12:45:58.984Z,0.50
2018-08-22T12:48:00.990Z,0.55
2018-08-22T12:50:02.966Z,0.70
2018-08-22T12:52:04.977Z,0.78
2018-08-22T12:54:06.977Z,1.12
2018-08-22T12:56:08.956Z,0.70
2018-08-22T12:58:10.952Z,0.80
2018-08-22T13:00:12.930Z,0.50
2018-08-22T13:02:14.915Z,0.60
2018-08-22T13:04:16.922Z,0.65
2018-08-22T13:06:18.942Z,0.80
2018-08-22T13:08:20.904Z,0.85
2018-08-22T13:10:22.896Z,0.70
2018-08-22T13:12:24.924Z,1.07
2018-08-22T13:14:26.924Z,0.82
2018-08-22T13:16:28.909Z,0.88
2018-08-22T13:18:30.922Z,0.70
2018-08-22T13:20:32.884Z,0.80
2018-08-22T13:22:34.873Z,0.68
2018-08-22T13:24:36.878Z,0.82
2018-08-22T13:26:39.256Z,0.70
2018-08-22T13:28:41.248Z,1.45
2018-08-22T13:30:43.226Z,0.70
2018-08-22T13:32:45.219Z,0.70
2018-08-22T13:34:47.196Z,0.55
2018-08-22T13:36:49.224Z,0.80
2018-08-22T13:38:51.209Z,0.60
2018-08-22T13:40:53.207Z,0.72
2018-08-22T13:42:55.229Z,0.60
2018-08-22T13:44:57.199Z,0.80
2018-08-22T13:46:59.216Z,0.80
2018-08-22T13:49:01.222Z,0.80
2018-08-22T13:51:03.192Z,0.57
2018-08-22T13:53:05.179Z,1.00
2018-08-22T13:55:07.179Z,0.98
2018-08-22T13:57:09.156Z,0.50
2018-08-22T13:59:11.163Z,0.68
2018-08-22T14:01:13.142Z,0.85
2018-08-22T14:03:15.113Z,0.75
2018-08-22T14:05:17.158Z,1.12
2018-08-22T14:07:19.132Z,0.80
2018-08-22T14:09:21.112Z,0.80
2018-08-22T14:11:23.165Z,0.80
2018-08-22T14:13:25.129Z,0.90
2018-08-22T14:15:27.132Z,0.80
2018-08-22T14:17:29.139Z,0.80
2018-08-22T14:19:31.391Z,0.70
2018-08-22T14:21:33.394Z,0.98
2018-08-22T14:23:35.380Z,0.75
2018-08-22T14:25:37.347Z,0.80
2018-08-22T14:27:39.363Z,0.70
2018-08-22T14:29:41.330Z,0.62
2018-08-22T14:31:43.308Z,0.75
2018-08-22T14:33:45.475Z,0.80
2018-08-22T14:35:47.304Z,0.72
2018-08-22T14:37:49.291Z,0.88
2018-08-22T14:39:51.310Z,0.80
2018-08-22T14:41:53.324Z,0.90
2018-08-22T14:43:55.296Z,0.65
2018-08-22T14:45:57.282Z,1.02
2018-08-22T14:47:59.286Z,0.85
2018-08-22T14:50:01.271Z,0.90
2018-08-22T14:52:03.268Z,0.80
2018-08-22T14:54:05.241Z,1.00
2018-08-22T14:56:07.288Z,1.07
2018-08-22T14:58:09.232Z,0.80
2018-08-22T15:00:11.201Z,0.90
2018-08-22T15:02:13.271Z,0.70
2018-08-22T15:04:15.198Z,0.90
2018-08-22T15:06:17.203Z,1.10
2018-08-22T15:08:19.246Z,0.75
2018-08-22T15:10:21.196Z,1.77
2018-08-22T15:12:23.183Z,1.10
2018-08-22T15:14:25.181Z,0.90
2018-08-22T15:16:27.159Z,1.00
2018-08-22T15:18:29.149Z,0.80
2018-08-22T15:20:31.158Z,0.78
2018-08-22T15:22:33.136Z,0.90
2018-08-22T15:24:35.146Z,0.78
2018-08-22T15:26:37.130Z,0.88
2018-08-22T15:28:39.102Z,0.80
2018-08-22T15:30:41.106Z,0.95
2018-08-22T15:32:43.096Z,1.00
2018-08-22T15:34:45.056Z,1.07
2018-08-22T15:36:47.071Z,1.07
2018-08-22T15:38:49.054Z,0.80
2018-08-22T15:40:51.046Z,1.30
2018-08-22T15:42:53.016Z,0.88
2018-08-22T15:44:54.995Z,0.90
2018-08-22T15:46:57.022Z,0.93
2018-08-22T15:48:59.018Z,0.90
2018-08-22T15:51:01.007Z,1.00
2018-08-22T15:53:03.071Z,0.95
2018-08-22T15:55:05.031Z,1.07
2018-08-22T15:57:06.994Z,0.95
2018-08-22T15:59:09.027Z,0.90
2018-08-22T16:01:11.002Z,1.10
2018-08-22T16:03:13.014Z,1.17
2018-08-22T16:05:15.025Z,0.90
2018-08-22T16:07:17.000Z,0.98
2018-08-22T16:09:19.000Z,1.27
2018-08-22T16:11:20.972Z,0.90
2018-08-22T16:13:22.937Z,2.02
2018-08-22T16:15:24.956Z,1.00
2018-08-22T16:17:26.924Z,0.85
2018-08-22T16:19:28.900Z,1.02
2018-08-22T16:21:30.924Z,0.80
2018-08-22T16:23:32.893Z,1.12
2018-08-22T16:25:34.933Z,1.37
2018-08-22T16:27:36.922Z,1.17
2018-08-22T16:29:38.926Z,1.10
2018-08-22T16:31:40.906Z,0.82
2018-08-22T16:33:42.920Z,0.90
2018-08-22T16:35:44.973Z,0.98
2018-08-22T16:37:46.892Z,1.02
2018-08-22T16:39:48.900Z,0.90
2018-08-22T16:41:50.872Z,1.10
2018-08-22T16:43:52.866Z,2.33
2018-08-22T16:45:54.886Z,0.98
2018-08-22T16:47:56.864Z,1.05
2018-08-22T16:49:58.875Z,1.20
2018-08-22T16:52:00.865Z,1.00
2018-08-22T16:54:02.826Z,1.10
2018-08-22T16:56:04.853Z,1.02
2018-08-22T16:58:06.832Z,0.88
2018-08-22T17:00:08.796Z,1.15
2018-08-22T17:02:10.804Z,1.05
2018-08-22T17:04:12.826Z,0.90
2018-08-22T17:06:14.853Z,0.88
2018-08-22T17:08:16.834Z,0.90
2018-08-22T17:10:18.814Z,1.00
2018-08-22T17:12:20.824Z,0.80
2018-08-22T17:14:22.844Z,1.02
2018-08-22T17:16:24.868Z,0.98
2018-08-22T17:18:26.873Z,1.62
2018-08-22T17:20:28.890Z,1.02
2018-08-22T17:22:30.928Z,4.33
2018-08-22T17:24:32.884Z,7.20
2018-08-22T17:26:34.857Z,83.80
2018-08-22T17:28:36.879Z,649.67
2018-08-22T17:30:39.040Z,252.32
2018-08-22T17:32:40.884Z,230.30
2018-08-22T17:34:42.922Z,249.80
2018-08-22T17:36:44.900Z,337.32
2018-08-22T17:38:46.897Z,317.50
2018-08-22T17:40:48.931Z,340.18
2018-08-22T17:42:50.979Z,432.25
2018-08-22T17:44:53.027Z,443.90
2018-08-22T17:46:55.049Z,467.50
2018-08-22T17:48:57.031Z,470.27
2018-08-22T17:50:59.069Z,450.48
2018-08-22T17:53:01.097Z,503.50
2018-08-22T17:55:03.097Z,380.05
2018-08-22T17:57:05.130Z,488.65
2018-08-22T17:59:07.112Z,479.53
2018-08-22T18:01:09.100Z,484.65
2018-08-22T18:03:11.145Z,493.48
2018-08-22T18:05:13.168Z,515.75
2018-08-22T18:07:15.171Z,539.42
2018-08-22T18:09:17.164Z,517.25
2018-08-22T18:11:19.154Z,530.03
2018-08-22T18:13:21.286Z,584.08
2018-08-22T18:15:23.307Z,717.87
2018-08-22T18:17:25.318Z,720.45
2018-08-22T18:19:27.426Z,955.48
2018-08-22T18:21:29.351Z,680.30
2018-08-22T18:23:31.363Z,714.83
2018-08-22T18:25:33.348Z,722.95
2018-08-22T18:27:35.343Z,608.92
2018-08-22T18:29:37.387Z,557.08
2018-08-22T18:31:39.444Z,548.85
2018-08-22T18:33:41.456Z,576.82
2018-08-22T18:35:43.491Z,536.20
2018-08-22T18:37:45.575Z,615.25
2018-08-22T18:39:47.853Z,602.97
2018-08-22T18:41:49.877Z,586.52
2018-08-22T18:43:51.923Z,580.58
2018-08-22T18:45:53.922Z,574.23
2018-08-22T18:47:55.905Z,589.65
2018-08-22T18:49:57.933Z,609.08
2018-08-22T18:51:59.959Z,648.67
2018-08-22T18:54:01.970Z,629.65
2018-08-22T18:56:03.989Z,633.40
2018-08-22T18:58:06.000Z,637.38
2018-08-22T19:00:08.009Z,626.30
2018-08-22T19:02:10.049Z,606.65
2018-08-22T19:04:12.119Z,621.45
2018-08-22T19:06:14.093Z,639.23
2018-08-22T19:08:16.072Z,650.45
2018-08-22T19:10:18.128Z,659.20
2018-08-22T19:12:20.214Z,664.90
2018-08-22T19:14:22.298Z,650.58
2018-08-22T19:16:24.330Z,675.77
2018-08-22T19:18:26.323Z,654.83
2018-08-22T19:20:28.500Z,641.58
2018-08-22T19:22:30.515Z,648.52
2018-08-22T19:24:32.502Z,631.85
2018-08-22T19:26:34.529Z,630.20
2018-08-22T19:28:36.528Z,618.95
2018-08-22T19:30:38.548Z,608.98
2018-08-22T19:32:40.528Z,627.58
2018-08-22T19:34:42.588Z,626.80
2018-08-22T19:36:44.586Z,646.17
2018-08-22T19:38:46.597Z,654.33
2018-08-22T19:40:48.607Z,667.27
2018-08-22T19:42:50.594Z,645.60
2018-08-22T19:44:52.621Z,669.37
2018-08-22T19:46:54.605Z,649.10
2018-08-22T19:48:56.645Z,626.92
2018-08-22T19:50:58.656Z,648.85
2018-08-22T19:53:00.629Z,639.42
2018-08-22T19:55:02.675Z,640.75
2018-08-22T19:57:04.680Z,652.23
2018-08-22T19:59:06.709Z,621.40
2018-08-22T20:01:08.687Z,630.22
2018-08-22T20:03:10.703Z,615.92
2018-08-22T20:05:12.741Z,620.15
2018-08-22T20:07:14.732Z,621.33
2018-08-22T20:09:16.726Z,628.42
2018-08-22T20:11:18.754Z,606.50
2018-08-22T20:13:20.750Z,632.17
2018-08-22T20:15:22.783Z,629.38
2018-08-22T20:17:24.803Z,658.87
2018-08-22T20:19:26.855Z,687.92
2018-08-22T20:21:28.879Z,693.63
2018-08-22T20:23:30.938Z,693.73
2018-08-22T20:25:32.854Z,682.27
2018-08-22T20:27:34.888Z,682.98
2018-08-22T20:29:36.865Z,677.55
2018-08-22T20:31:38.915Z,732.60
2018-08-22T20:33:40.908Z,742.05
2018-08-22T20:35:42.905Z,704.83
2018-08-22T20:37:44.934Z,705.92
2018-08-22T20:39:47.004Z,710.85
2018-08-22T20:41:48.977Z,707.92
2018-08-22T20:43:50.965Z,730.80
2018-08-22T20:45:52.981Z,751.20
2018-08-22T20:47:54.972Z,733.87
2018-08-22T20:49:56.965Z,739.02
2018-08-22T20:51:58.989Z,734.77
2018-08-22T20:54:00.995Z,723.45
2018-08-22T20:56:03.037Z,737.40
2018-08-22T20:58:05.021Z,743.48
2018-08-22T21:00:07.099Z,762.58
2018-08-22T21:02:09.196Z,765.95
2018-08-22T21:04:11.099Z,783.25
2018-08-22T21:06:13.147Z,766.60
2018-08-22T21:08:15.190Z,784.50
2018-08-22T21:10:17.182Z,782.25
2018-08-22T21:12:19.180Z,779.25
2018-08-22T21:14:21.217Z,765.50
2018-08-22T21:16:23.203Z,767.37
2018-08-22T21:18:25.255Z,785.73
2018-08-22T21:20:27.231Z,807.13
2018-08-22T21:22:29.210Z,811.80
2018-08-22T21:24:31.267Z,810.25
2018-08-22T21:26:33.250Z,801.15
2018-08-22T21:28:35.256Z,806.95
2018-08-22T21:30:37.289Z,803.30
2018-08-22T21:32:39.508Z,795.48
2018-08-22T21:34:41.516Z,811.43
2018-08-22T21:36:43.514Z,810.90
2018-08-22T21:38:45.542Z,824.95
2018-08-22T21:40:47.528Z,841.32
2018-08-22T21:42:49.520Z,859.83
2018-08-22T21:44:51.564Z,856.38
2018-08-22T21:46:53.542Z,837.30
2018-08-22T21:48:55.794Z,862.78
2018-08-22T21:50:57.816Z,861.08
2018-08-22T21:52:59.851Z,869.20
2018-08-22T21:55:01.888Z,879.78
2018-08-22T21:57:03.856Z,892.17
2018-08-22T21:59:05.857Z,898.17
2018-08-22T22:01:07.920Z,897.17
2018-08-22T22:03:09.950Z,891.27
2018-08-22T22:05:12.019Z,928.37
2018-08-22T22:07:13.933Z,955.55
2018-08-22T22:09:15.953Z,983.33
2018-08-22T22:11:17.971Z,963.45
2018-08-22T22:13:20.001Z,972.02
2018-08-22T22:15:21.985Z,980.08
2018-08-22T22:17:23.963Z,973.00
2018-08-22T22:19:25.993Z,958.33
2018-08-22T22:21:27.975Z,964.80
2018-08-22T22:23:29.979Z,950.02
2018-08-22T22:25:32.015Z,954.50
2018-08-22T22:27:34.054Z,953.17
2018-08-22T22:29:36.030Z,966.87
2018-08-22T22:31:38.014Z,941.83
2018-08-22T22:33:40.017Z,930.18
2018-08-22T22:35:42.018Z,927.92
2018-08-22T22:37:43.997Z,926.37
2018-08-22T22:39:46.045Z,928.97
2018-08-22T22:41:48.019Z,926.35
2018-08-22T22:43:50.031Z,920.75
2018-08-22T22:45:52.056Z,929.23
2018-08-22T22:47:54.034Z,916.27
2018-08-22T22:49:56.074Z,914.20
2018-08-22T22:51:58.059Z,900.22
2018-08-22T22:54:00.068Z,905.55
2018-08-22T22:56:02.085Z,899.60
2018-08-22T22:58:04.097Z,902.17
2018-08-22T23:00:06.105Z,892.13
2018-08-22T23:02:08.130Z,889.85
2018-08-22T23:04:10.146Z,872.87
2018-08-22T23:06:12.140Z,879.37
2018-08-22T23:08:14.182Z,884.45
2018-08-22T23:10:16.153Z,857.98
2018-08-22T23:12:18.132Z,868.22
2018-08-22T23:14:20.131Z,857.70
2018-08-22T23:16:22.149Z,851.77
2018-08-22T23:18:24.226Z,840.35
2018-08-22T23:20:26.162Z,854.60
2018-08-22T23:22:28.147Z,829.30
2018-08-22T23:24:30.148Z,814.23
2018-08-22T23:26:32.189Z,814.35
2018-08-22T23:28:34.169Z,810.25
2018-08-22T23:30:36.149Z,807.87
2018-08-22T23:32:38.174Z,804.52
2018-08-22T23:34:40.185Z,801.17
2018-08-22T23:36:42.192Z,803.17
2018-08-22T23:38:44.215Z,804.42
2018-08-22T23:40:46.234Z,783.40
2018-08-22T23:42:48.224Z,797.92
2018-08-22T23:44:50.241Z,766.02
2018-08-22T23:46:52.250Z,779.58
2018-08-22T23:48:54.252Z,765.98
2018-08-22T23:50:56.251Z,767.92
2018-08-22T23:52:58.235Z,750.67
2018-08-22T23:55:00.247Z,759.15
2018-08-22T23:57:02.247Z,735.45
2018-08-22T23:59:04.250Z,737.02
